sensor_id;sensor_type;location;lat;lon;timestamp;temperature;humidity
12115;DHT22;6121;49.810;6.418;2023-03-23T00:01:02;12.70;99.90
12115;DHT22;6121;49.810;6.418;2023-03-23T00:03:28;12.80;99.90
12115;DHT22;6121;49.810;6.418;2023-03-23T00:05:55;12.80;99.90
12115;DHT22;6121;49.810;6.418;2023-03-23T00:08:25;12.90;99.90
12115;DHT22;6121;49.810;6.418;2023-03-23T00:10:52;12.90;99.90
12115;DHT22;6121;49.810;6.418;2023-03-23T00:13:26;12.80;99.90
12115;DHT22;6121;49.810;6.418;2023-03-23T00:15:52;12.80;99.90
12115;DHT22;6121;49.810;6.418;2023-03-23T00:18:21;12.90;99.90
12115;DHT22;6121;49.810;6.418;2023-03-23T00:20:55;12.80;99.90
12115;DHT22;6121;49.810;6.418;2023-03-23T00:23:24;12.80;99.90
12115;DHT22;6121;49.810;6.418;2023-03-23T00:25:55;12.70;99.90
12115;DHT22;6121;49.810;6.418;2023-03-23T00:28:25;12.90;99.90
12115;DHT22;6121;49.810;6.418;2023-03-23T00:30:59;12.90;99.90
12115;DHT22;6121;49.810;6.418;2023-03-23T00:33:28;12.90;99.90
12115;DHT22;6121;49.810;6.418;2023-03-23T00:35:55;12.80;99.90
12115;DHT22;6121;49.810;6.418;2023-03-23T00:38:22;12.80;99.90
12115;DHT22;6121;49.810;6.418;2023-03-23T00:40:48;12.80;99.90
12115;DHT22;6121;49.810;6.418;2023-03-23T00:43:16;12.80;99.90
12115;DHT22;6121;49.810;6.418;2023-03-23T00:45:43;12.80;99.90
12115;DHT22;6121;49.810;6.418;2023-03-23T00:48:11;12.80;99.90
12115;DHT22;6121;49.810;6.418;2023-03-23T00:50:40;12.90;99.90
12115;DHT22;6121;49.810;6.418;2023-03-23T00:53:06;12.80;99.90
12115;DHT22;6121;49.810;6.418;2023-03-23T00:55:32;12.70;99.90
12115;DHT22;6121;49.810;6.418;2023-03-23T00:57:59;12.60;99.90
12115;DHT22;6121;49.810;6.418;2023-03-23T01:00:26;12.70;99.90
12115;DHT22;6121;49.810;6.418;2023-03-23T01:02:55;12.60;99.90
12115;DHT22;6121;49.810;6.418;2023-03-23T01:05:21;12.50;99.90
12115;DHT22;6121;49.810;6.418;2023-03-23T01:07:47;12.50;99.90
12115;DHT22;6121;49.810;6.418;2023-03-23T01:10:14;12.30;99.90
12115;DHT22;6121;49.810;6.418;2023-03-23T01:12:44;12.30;99.90
12115;DHT22;6121;49.810;6.418;2023-03-23T01:15:15;12.40;99.90
12115;DHT22;6121;49.810;6.418;2023-03-23T01:17:42;12.50;99.90
12115;DHT22;6121;49.810;6.418;2023-03-23T01:20:08;12.70;99.90
12115;DHT22;6121;49.810;6.418;2023-03-23T01:22:35;12.50;99.90
12115;DHT22;6121;49.810;6.418;2023-03-23T01:25:01;12.30;99.90
12115;DHT22;6121;49.810;6.418;2023-03-23T01:27:27;12.30;99.90
12115;DHT22;6121;49.810;6.418;2023-03-23T01:29:54;12.20;99.90
12115;DHT22;6121;49.810;6.418;2023-03-23T01:32:20;12.30;99.90
12115;DHT22;6121;49.810;6.418;2023-03-23T01:34:46;12.30;99.90
12115;DHT22;6121;49.810;6.418;2023-03-23T01:37:12;12.30;99.90
12115;DHT22;6121;49.810;6.418;2023-03-23T01:39:38;12.20;99.90
12115;DHT22;6121;49.810;6.418;2023-03-23T01:42:04;12.20;99.90
12115;DHT22;6121;49.810;6.418;2023-03-23T01:47:01;12.20;99.90
12115;DHT22;6121;49.810;6.418;2023-03-23T01:49:31;12.20;99.90
12115;DHT22;6121;49.810;6.418;2023-03-23T01:52:02;12.20;99.90
12115;DHT22;6121;49.810;6.418;2023-03-23T01:54:29;12.30;99.90
12115;DHT22;6121;49.810;6.418;2023-03-23T01:57:04;12.20;99.90
12115;DHT22;6121;49.810;6.418;2023-03-23T01:59:32;12.40;99.90
12115;DHT22;6121;49.810;6.418;2023-03-23T02:02:28;12.50;99.90
12115;DHT22;6121;49.810;6.418;2023-03-23T02:04:59;12.40;99.90
12115;DHT22;6121;49.810;6.418;2023-03-23T02:07:31;12.00;99.90
12115;DHT22;6121;49.810;6.418;2023-03-23T02:09:59;12.20;99.90
12115;DHT22;6121;49.810;6.418;2023-03-23T02:12:27;12.10;99.90
12115;DHT22;6121;49.810;6.418;2023-03-23T02:14:53;12.10;99.90
12115;DHT22;6121;49.810;6.418;2023-03-23T02:17:50;12.20;99.90
12115;DHT22;6121;49.810;6.418;2023-03-23T02:32:31;12.30;99.90
12115;DHT22;6121;49.810;6.418;2023-03-23T02:34:41;12.10;99.90
12115;DHT22;6121;49.810;6.418;2023-03-23T02:37:35;12.00;99.90
12115;DHT22;6121;49.810;6.418;2023-03-23T02:40:06;12.00;99.90
12115;DHT22;6121;49.810;6.418;2023-03-23T02:42:36;11.90;99.90
12115;DHT22;6121;49.810;6.418;2023-03-23T02:45:06;11.80;99.90
12115;DHT22;6121;49.810;6.418;2023-03-23T02:47:36;11.70;99.90
12115;DHT22;6121;49.810;6.418;2023-03-23T02:50:03;11.70;99.90
12115;DHT22;6121;49.810;6.418;2023-03-23T02:52:31;11.60;99.90
12115;DHT22;6121;49.810;6.418;2023-03-23T02:54:58;11.90;99.90
12115;DHT22;6121;49.810;6.418;2023-03-23T02:57:26;11.90;99.90
12115;DHT22;6121;49.810;6.418;2023-03-23T02:59:54;11.70;99.90
12115;DHT22;6121;49.810;6.418;2023-03-23T03:02:43;11.60;99.90
12115;DHT22;6121;49.810;6.418;2023-03-23T03:05:43;11.60;99.90
12115;DHT22;6121;49.810;6.418;2023-03-23T03:21:13;12.00;99.90
12115;DHT22;6121;49.810;6.418;2023-03-23T03:23:43;11.90;99.90
12115;DHT22;6121;49.810;6.418;2023-03-23T03:26:12;11.90;99.90
12115;DHT22;6121;49.810;6.418;2023-03-23T03:28:49;11.90;99.90
12115;DHT22;6121;49.810;6.418;2023-03-23T03:31:20;11.90;99.90
12115;DHT22;6121;49.810;6.418;2023-03-23T03:33:46;12.00;99.90
12115;DHT22;6121;49.810;6.418;2023-03-23T03:36:19;11.90;99.90
12115;DHT22;6121;49.810;6.418;2023-03-23T03:38:49;11.80;99.90
12115;DHT22;6121;49.810;6.418;2023-03-23T03:41:16;11.90;99.90
12115;DHT22;6121;49.810;6.418;2023-03-23T03:43:42;12.00;99.90
12115;DHT22;6121;49.810;6.418;2023-03-23T03:46:08;12.00;99.90
12115;DHT22;6121;49.810;6.418;2023-03-23T03:48:34;12.10;99.90
12115;DHT22;6121;49.810;6.418;2023-03-23T03:51:00;11.90;99.90
12115;DHT22;6121;49.810;6.418;2023-03-23T03:53:29;12.00;99.90
12115;DHT22;6121;49.810;6.418;2023-03-23T03:55:56;12.10;99.90
12115;DHT22;6121;49.810;6.418;2023-03-23T03:58:26;12.20;99.90
12115;DHT22;6121;49.810;6.418;2023-03-23T04:01:21;12.10;99.90
12115;DHT22;6121;49.810;6.418;2023-03-23T04:03:50;12.00;99.90
12115;DHT22;6121;49.810;6.418;2023-03-23T04:06:30;11.90;99.90
12115;DHT22;6121;49.810;6.418;2023-03-23T04:08:57;11.90;99.90
12115;DHT22;6121;49.810;6.418;2023-03-23T04:11:25;11.90;99.90
12115;DHT22;6121;49.810;6.418;2023-03-23T04:13:52;12.10;99.90
12115;DHT22;6121;49.810;6.418;2023-03-23T04:16:20;12.10;99.90
12115;DHT22;6121;49.810;6.418;2023-03-23T04:18:47;12.00;99.90
12115;DHT22;6121;49.810;6.418;2023-03-23T04:21:16;11.80;99.90
12115;DHT22;6121;49.810;6.418;2023-03-23T04:23:44;11.90;99.90
12115;DHT22;6121;49.810;6.418;2023-03-23T04:26:11;11.90;99.90
12115;DHT22;6121;49.810;6.418;2023-03-23T04:28:40;11.80;99.90
12115;DHT22;6121;49.810;6.418;2023-03-23T04:31:26;11.90;99.90
12115;DHT22;6121;49.810;6.418;2023-03-23T04:33:59;12.00;99.90
12115;DHT22;6121;49.810;6.418;2023-03-23T04:36:30;11.90;99.90
12115;DHT22;6121;49.810;6.418;2023-03-23T04:39:02;11.90;99.90
12115;DHT22;6121;49.810;6.418;2023-03-23T04:41:29;11.80;99.90
12115;DHT22;6121;49.810;6.418;2023-03-23T04:44:16;11.80;99.90
12115;DHT22;6121;49.810;6.418;2023-03-23T04:46:46;11.70;99.90
12115;DHT22;6121;49.810;6.418;2023-03-23T04:49:16;11.80;99.90
12115;DHT22;6121;49.810;6.418;2023-03-23T04:51:47;11.70;99.90
12115;DHT22;6121;49.810;6.418;2023-03-23T04:54:22;11.80;99.90
12115;DHT22;6121;49.810;6.418;2023-03-23T04:56:53;12.00;99.90
12115;DHT22;6121;49.810;6.418;2023-03-23T04:59:19;12.00;99.90
12115;DHT22;6121;49.810;6.418;2023-03-23T05:01:58;11.80;99.90
12115;DHT22;6121;49.810;6.418;2023-03-23T05:04:25;12.00;99.90
12115;DHT22;6121;49.810;6.418;2023-03-23T05:07:00;11.90;99.90
12115;DHT22;6121;49.810;6.418;2023-03-23T05:09:29;11.90;99.90
12115;DHT22;6121;49.810;6.418;2023-03-23T05:11:56;12.00;99.90
12115;DHT22;6121;49.810;6.418;2023-03-23T05:14:24;11.90;99.90
12115;DHT22;6121;49.810;6.418;2023-03-23T05:17:01;11.90;99.90
12115;DHT22;6121;49.810;6.418;2023-03-23T05:19:27;11.80;99.90
12115;DHT22;6121;49.810;6.418;2023-03-23T05:21:57;11.80;99.90
12115;DHT22;6121;49.810;6.418;2023-03-23T05:24:30;11.80;99.90
12115;DHT22;6121;49.810;6.418;2023-03-23T05:27:02;11.90;99.90
12115;DHT22;6121;49.810;6.418;2023-03-23T05:29:33;11.90;99.90
12115;DHT22;6121;49.810;6.418;2023-03-23T05:32:03;11.90;99.90
12115;DHT22;6121;49.810;6.418;2023-03-23T05:34:32;12.00;99.90
12115;DHT22;6121;49.810;6.418;2023-03-23T05:37:01;11.90;99.90
12115;DHT22;6121;49.810;6.418;2023-03-23T05:39:33;12.00;99.90
12115;DHT22;6121;49.810;6.418;2023-03-23T05:42:21;12.00;99.90
12115;DHT22;6121;49.810;6.418;2023-03-23T05:44:59;12.10;99.90
12115;DHT22;6121;49.810;6.418;2023-03-23T05:47:26;12.10;99.90
12115;DHT22;6121;49.810;6.418;2023-03-23T05:49:56;12.00;99.90
12115;DHT22;6121;49.810;6.418;2023-03-23T05:52:24;11.90;99.90
12115;DHT22;6121;49.810;6.418;2023-03-23T05:54:51;11.90;99.90
12115;DHT22;6121;49.810;6.418;2023-03-23T05:57:19;12.00;99.90
12115;DHT22;6121;49.810;6.418;2023-03-23T05:59:52;12.00;99.90
12115;DHT22;6121;49.810;6.418;2023-03-23T06:02:22;12.10;99.90
12115;DHT22;6121;49.810;6.418;2023-03-23T06:04:51;12.10;99.90
12115;DHT22;6121;49.810;6.418;2023-03-23T06:07:26;12.10;99.90
12115;DHT22;6121;49.810;6.418;2023-03-23T06:09:58;12.10;99.90
12115;DHT22;6121;49.810;6.418;2023-03-23T06:12:24;12.30;99.90
12115;DHT22;6121;49.810;6.418;2023-03-23T06:15:09;12.30;99.90
12115;DHT22;6121;49.810;6.418;2023-03-23T06:18:10;12.20;99.90
12115;DHT22;6121;49.810;6.418;2023-03-23T06:20:58;12.10;99.90
12115;DHT22;6121;49.810;6.418;2023-03-23T06:23:30;12.10;99.90
12115;DHT22;6121;49.810;6.418;2023-03-23T06:26:00;12.20;99.90
12115;DHT22;6121;49.810;6.418;2023-03-23T06:28:26;12.10;99.90
12115;DHT22;6121;49.810;6.418;2023-03-23T06:30:53;12.10;99.90
12115;DHT22;6121;49.810;6.418;2023-03-23T06:33:19;12.10;99.90
12115;DHT22;6121;49.810;6.418;2023-03-23T06:36:11;12.20;99.90
12115;DHT22;6121;49.810;6.418;2023-03-23T06:39:06;12.30;99.90
12115;DHT22;6121;49.810;6.418;2023-03-23T06:41:47;12.40;99.90
12115;DHT22;6121;49.810;6.418;2023-03-23T06:44:13;12.50;99.90
12115;DHT22;6121;49.810;6.418;2023-03-23T06:46:41;12.40;99.90
12115;DHT22;6121;49.810;6.418;2023-03-23T06:49:27;12.40;99.90
12115;DHT22;6121;49.810;6.418;2023-03-23T06:52:02;12.40;99.90
12115;DHT22;6121;49.810;6.418;2023-03-23T06:54:30;12.50;99.90
12115;DHT22;6121;49.810;6.418;2023-03-23T06:56:58;12.40;99.90
12115;DHT22;6121;49.810;6.418;2023-03-23T06:59:24;12.40;99.90
12115;DHT22;6121;49.810;6.418;2023-03-23T07:01:49;12.40;99.90
12115;DHT22;6121;49.810;6.418;2023-03-23T07:04:15;12.40;99.90
12115;DHT22;6121;49.810;6.418;2023-03-23T07:06:57;12.50;99.90
12115;DHT22;6121;49.810;6.418;2023-03-23T07:09:23;12.60;99.90
12115;DHT22;6121;49.810;6.418;2023-03-23T07:11:49;12.50;99.90
12115;DHT22;6121;49.810;6.418;2023-03-23T07:14:29;12.40;99.90
12115;DHT22;6121;49.810;6.418;2023-03-23T07:16:55;12.30;99.90
12115;DHT22;6121;49.810;6.418;2023-03-23T07:19:22;12.50;99.90
12115;DHT22;6121;49.810;6.418;2023-03-23T07:21:48;12.50;99.90
12115;DHT22;6121;49.810;6.418;2023-03-23T07:24:14;12.50;99.90
12115;DHT22;6121;49.810;6.418;2023-03-23T07:27:10;12.70;99.90
12115;DHT22;6121;49.810;6.418;2023-03-23T07:29:37;12.60;99.90
12115;DHT22;6121;49.810;6.418;2023-03-23T07:32:12;12.70;99.90
12115;DHT22;6121;49.810;6.418;2023-03-23T07:34:39;12.60;99.90
12115;DHT22;6121;49.810;6.418;2023-03-23T07:37:25;12.80;99.90
12115;DHT22;6121;49.810;6.418;2023-03-23T07:39:51;12.60;99.90
12115;DHT22;6121;49.810;6.418;2023-03-23T07:42:17;12.50;99.90
12115;DHT22;6121;49.810;6.418;2023-03-23T07:44:49;12.50;99.90
12115;DHT22;6121;49.810;6.418;2023-03-23T07:47:16;12.60;99.90
12115;DHT22;6121;49.810;6.418;2023-03-23T07:49:45;12.60;99.90
12115;DHT22;6121;49.810;6.418;2023-03-23T07:52:17;12.70;99.90
12115;DHT22;6121;49.810;6.418;2023-03-23T07:54:43;12.80;99.90
12115;DHT22;6121;49.810;6.418;2023-03-23T07:57:25;12.70;99.90
12115;DHT22;6121;49.810;6.418;2023-03-23T07:59:52;12.90;99.90
12115;DHT22;6121;49.810;6.418;2023-03-23T08:02:18;13.00;99.90
12115;DHT22;6121;49.810;6.418;2023-03-23T08:04:53;13.00;99.90
12115;DHT22;6121;49.810;6.418;2023-03-23T08:07:38;12.70;99.90
12115;DHT22;6121;49.810;6.418;2023-03-23T08:10:24;12.70;99.90
12115;DHT22;6121;49.810;6.418;2023-03-23T08:13:13;12.70;99.90
12115;DHT22;6121;49.810;6.418;2023-03-23T08:16:07;12.40;99.90
12115;DHT22;6121;49.810;6.418;2023-03-23T08:18:53;12.60;99.90
12115;DHT22;6121;49.810;6.418;2023-03-23T08:21:41;12.60;99.90
12115;DHT22;6121;49.810;6.418;2023-03-23T08:24:20;12.40;99.90
12115;DHT22;6121;49.810;6.418;2023-03-23T08:26:52;12.40;99.90
12115;DHT22;6121;49.810;6.418;2023-03-23T08:29:35;12.60;99.90
12115;DHT22;6121;49.810;6.418;2023-03-23T08:32:20;12.30;99.90
12115;DHT22;6121;49.810;6.418;2023-03-23T08:34:53;12.30;99.90
12115;DHT22;6121;49.810;6.418;2023-03-23T08:37:54;12.40;99.90
12115;DHT22;6121;49.810;6.418;2023-03-23T08:40:39;12.30;99.90
12115;DHT22;6121;49.810;6.418;2023-03-23T08:43:34;12.30;99.90
12115;DHT22;6121;49.810;6.418;2023-03-23T08:46:23;12.40;99.90
12115;DHT22;6121;49.810;6.418;2023-03-23T08:49:08;12.70;99.90
12115;DHT22;6121;49.810;6.418;2023-03-23T08:51:53;12.70;99.90
12115;DHT22;6121;49.810;6.418;2023-03-23T08:54:31;12.70;99.90
12115;DHT22;6121;49.810;6.418;2023-03-23T08:57:11;12.40;99.90
12115;DHT22;6121;49.810;6.418;2023-03-23T08:59:58;12.60;99.90
12115;DHT22;6121;49.810;6.418;2023-03-23T09:02:50;12.40;99.90
12115;DHT22;6121;49.810;6.418;2023-03-23T09:05:24;12.40;99.90
12115;DHT22;6121;49.810;6.418;2023-03-23T09:08:15;12.60;99.90
12115;DHT22;6121;49.810;6.418;2023-03-23T09:10:41;12.60;99.90
12115;DHT22;6121;49.810;6.418;2023-03-23T09:13:07;12.80;99.90
12115;DHT22;6121;49.810;6.418;2023-03-23T09:15:33;13.00;99.90
12115;DHT22;6121;49.810;6.418;2023-03-23T09:17:59;13.00;99.90
12115;DHT22;6121;49.810;6.418;2023-03-23T09:20:29;13.00;99.90
12115;DHT22;6121;49.810;6.418;2023-03-23T09:22:56;13.10;99.90
12115;DHT22;6121;49.810;6.418;2023-03-23T09:25:25;13.10;99.90
12115;DHT22;6121;49.810;6.418;2023-03-23T09:27:56;13.30;99.90
12115;DHT22;6121;49.810;6.418;2023-03-23T09:30:25;13.30;99.90
12115;DHT22;6121;49.810;6.418;2023-03-23T09:32:52;13.60;99.90
12115;DHT22;6121;49.810;6.418;2023-03-23T09:35:18;13.60;99.90
12115;DHT22;6121;49.810;6.418;2023-03-23T09:37:47;13.60;99.90
12115;DHT22;6121;49.810;6.418;2023-03-23T09:40:22;13.70;99.90
12115;DHT22;6121;49.810;6.418;2023-03-23T09:43:43;13.80;99.90
12115;DHT22;6121;49.810;6.418;2023-03-23T09:46:06;14.20;99.90
12115;DHT22;6121;49.810;6.418;2023-03-23T09:49:10;14.00;99.90
12115;DHT22;6121;49.810;6.418;2023-03-23T09:51:50;14.10;99.90
12115;DHT22;6121;49.810;6.418;2023-03-23T09:54:26;14.10;99.90
12115;DHT22;6121;49.810;6.418;2023-03-23T09:56:54;14.40;99.90
12115;DHT22;6121;49.810;6.418;2023-03-23T09:59:35;14.30;99.90
12115;DHT22;6121;49.810;6.418;2023-03-23T10:05:29;15.10;99.90
12115;DHT22;6121;49.810;6.418;2023-03-23T10:07:56;15.40;99.90
12115;DHT22;6121;49.810;6.418;2023-03-23T10:11:02;15.80;99.90
12115;DHT22;6121;49.810;6.418;2023-03-23T10:16:14;16.70;99.90
12115;DHT22;6121;49.810;6.418;2023-03-23T10:18:47;16.60;99.90
12115;DHT22;6121;49.810;6.418;2023-03-23T10:21:17;16.00;99.90
12115;DHT22;6121;49.810;6.418;2023-03-23T10:23:58;15.30;99.90
12115;DHT22;6121;49.810;6.418;2023-03-23T10:29:35;15.70;99.90
12115;DHT22;6121;49.810;6.418;2023-03-23T10:35:09;18.10;99.90
12115;DHT22;6121;49.810;6.418;2023-03-23T10:37:39;17.50;99.90
12115;DHT22;6121;49.810;6.418;2023-03-23T10:40:14;18.40;99.90
12115;DHT22;6121;49.810;6.418;2023-03-23T10:42:41;17.30;99.90
12115;DHT22;6121;49.810;6.418;2023-03-23T10:47:45;16.60;99.90
12115;DHT22;6121;49.810;6.418;2023-03-23T10:50:15;16.70;99.90
12115;DHT22;6121;49.810;6.418;2023-03-23T10:52:43;16.50;99.90
12115;DHT22;6121;49.810;6.418;2023-03-23T10:55:18;16.60;99.90
12115;DHT22;6121;49.810;6.418;2023-03-23T10:58:09;16.60;99.90
12115;DHT22;6121;49.810;6.418;2023-03-23T11:00:33;16.70;99.90
12115;DHT22;6121;49.810;6.418;2023-03-23T11:03:05;15.80;99.90
12115;DHT22;6121;49.810;6.418;2023-03-23T11:05:40;15.80;99.90
12115;DHT22;6121;49.810;6.418;2023-03-23T11:08:15;16.00;99.90
12115;DHT22;6121;49.810;6.418;2023-03-23T11:10:50;16.30;99.90
12115;DHT22;6121;49.810;6.418;2023-03-23T11:13:18;16.30;99.90
12115;DHT22;6121;49.810;6.418;2023-03-23T11:15:47;16.20;99.90
12115;DHT22;6121;49.810;6.418;2023-03-23T11:18:19;16.40;99.90
12115;DHT22;6121;49.810;6.418;2023-03-23T11:20:48;16.60;99.90
12115;DHT22;6121;49.810;6.418;2023-03-23T11:23:30;16.60;99.90
12115;DHT22;6121;49.810;6.418;2023-03-23T11:28:33;17.10;99.90
12115;DHT22;6121;49.810;6.418;2023-03-23T11:31:29;17.40;99.90
12115;DHT22;6121;49.810;6.418;2023-03-23T11:34:03;16.70;99.90
12115;DHT22;6121;49.810;6.418;2023-03-23T11:36:33;16.30;99.90
12115;DHT22;6121;49.810;6.418;2023-03-23T11:38:59;16.70;99.90
12115;DHT22;6121;49.810;6.418;2023-03-23T11:41:34;17.30;99.90
12115;DHT22;6121;49.810;6.418;2023-03-23T11:44:08;17.20;99.90
12115;DHT22;6121;49.810;6.418;2023-03-23T11:46:55;17.40;99.90
12115;DHT22;6121;49.810;6.418;2023-03-23T11:52:22;17.00;99.90
12115;DHT22;6121;49.810;6.418;2023-03-23T11:54:55;16.50;99.90
12115;DHT22;6121;49.810;6.418;2023-03-23T11:57:22;16.30;99.90
12115;DHT22;6121;49.810;6.418;2023-03-23T11:59:48;16.00;99.90
12115;DHT22;6121;49.810;6.418;2023-03-23T12:04:56;15.80;99.90
12115;DHT22;6121;49.810;6.418;2023-03-23T12:07:50;15.80;99.90
12115;DHT22;6121;49.810;6.418;2023-03-23T12:10:27;15.80;99.90
12115;DHT22;6121;49.810;6.418;2023-03-23T12:16:00;15.40;99.90
12115;DHT22;6121;49.810;6.418;2023-03-23T12:21:45;15.00;99.90
12115;DHT22;6121;49.810;6.418;2023-03-23T12:24:33;14.80;99.90
12115;DHT22;6121;49.810;6.418;2023-03-23T12:38:20;14.80;99.90
12115;DHT22;6121;49.810;6.418;2023-03-23T12:41:07;14.60;99.90
12115;DHT22;6121;49.810;6.418;2023-03-23T12:49:35;14.80;99.90
12115;DHT22;6121;49.810;6.418;2023-03-23T12:52:16;14.90;99.90
12115;DHT22;6121;49.810;6.418;2023-03-23T12:54:57;15.20;99.90
12115;DHT22;6121;49.810;6.418;2023-03-23T12:58:07;15.20;99.90
12115;DHT22;6121;49.810;6.418;2023-03-23T13:03:48;15.70;99.90
12115;DHT22;6121;49.810;6.418;2023-03-23T13:11:45;15.80;99.90
12115;DHT22;6121;49.810;6.418;2023-03-23T13:14:27;16.20;99.90
12115;DHT22;6121;49.810;6.418;2023-03-23T13:25:17;16.60;99.90
12115;DHT22;6121;49.810;6.418;2023-03-23T13:27:44;16.80;99.90
12115;DHT22;6121;49.810;6.418;2023-03-23T13:30:22;16.60;99.90
12115;DHT22;6121;49.810;6.418;2023-03-23T13:32:51;16.80;99.90
12115;DHT22;6121;49.810;6.418;2023-03-23T13:35:20;16.50;99.90
12115;DHT22;6121;49.810;6.418;2023-03-23T13:37:51;16.50;99.90
12115;DHT22;6121;49.810;6.418;2023-03-23T13:40:30;16.50;99.90
12115;DHT22;6121;49.810;6.418;2023-03-23T13:42:59;16.50;99.90
12115;DHT22;6121;49.810;6.418;2023-03-23T13:51:00;16.50;99.90
12115;DHT22;6121;49.810;6.418;2023-03-23T13:53:52;16.40;99.90
12115;DHT22;6121;49.810;6.418;2023-03-23T13:56:40;16.10;99.90
12115;DHT22;6121;49.810;6.418;2023-03-23T13:59:13;16.10;99.90
12115;DHT22;6121;49.810;6.418;2023-03-23T14:01:39;16.30;99.90
12115;DHT22;6121;49.810;6.418;2023-03-23T14:04:14;16.30;99.90
12115;DHT22;6121;49.810;6.418;2023-03-23T14:06:40;16.20;99.90
12115;DHT22;6121;49.810;6.418;2023-03-23T14:12:04;16.10;99.90
12115;DHT22;6121;49.810;6.418;2023-03-23T14:14:46;16.10;99.90
12115;DHT22;6121;49.810;6.418;2023-03-23T14:17:18;16.00;99.90
12115;DHT22;6121;49.810;6.418;2023-03-23T14:19:49;15.90;99.90
12115;DHT22;6121;49.810;6.418;2023-03-23T14:22:27;15.80;99.90
12115;DHT22;6121;49.810;6.418;2023-03-23T14:27:36;16.00;99.90
12115;DHT22;6121;49.810;6.418;2023-03-23T14:30:05;16.10;99.90
12115;DHT22;6121;49.810;6.418;2023-03-23T14:32:32;16.40;99.90
12115;DHT22;6121;49.810;6.418;2023-03-23T14:35:00;16.50;99.90
12115;DHT22;6121;49.810;6.418;2023-03-23T14:37:31;16.00;99.90
12115;DHT22;6121;49.810;6.418;2023-03-23T14:39:58;16.10;99.90
12115;DHT22;6121;49.810;6.418;2023-03-23T14:42:30;16.10;99.90
12115;DHT22;6121;49.810;6.418;2023-03-23T14:44:57;16.20;99.90
12115;DHT22;6121;49.810;6.418;2023-03-23T14:47:27;16.20;99.90
12115;DHT22;6121;49.810;6.418;2023-03-23T14:49:55;16.20;99.90
12115;DHT22;6121;49.810;6.418;2023-03-23T14:52:23;16.40;99.90
12115;DHT22;6121;49.810;6.418;2023-03-23T14:54:50;16.30;99.90
12115;DHT22;6121;49.810;6.418;2023-03-23T14:57:19;16.00;99.90
12115;DHT22;6121;49.810;6.418;2023-03-23T14:59:51;15.80;99.90
12115;DHT22;6121;49.810;6.418;2023-03-23T15:02:25;15.90;99.90
12115;DHT22;6121;49.810;6.418;2023-03-23T15:04:59;16.00;99.90
12115;DHT22;6121;49.810;6.418;2023-03-23T15:07:33;16.10;99.90
12115;DHT22;6121;49.810;6.418;2023-03-23T15:09:59;16.10;99.90
12115;DHT22;6121;49.810;6.418;2023-03-23T15:12:30;16.20;99.90
12115;DHT22;6121;49.810;6.418;2023-03-23T15:15:02;16.10;99.90
12115;DHT22;6121;49.810;6.418;2023-03-23T15:17:30;15.90;99.90
12115;DHT22;6121;49.810;6.418;2023-03-23T15:19:57;15.90;99.90
12115;DHT22;6121;49.810;6.418;2023-03-23T15:22:26;16.00;99.90
12115;DHT22;6121;49.810;6.418;2023-03-23T15:27:41;15.80;99.90
12115;DHT22;6121;49.810;6.418;2023-03-23T15:32:54;15.70;99.90
12115;DHT22;6121;49.810;6.418;2023-03-23T15:35:24;15.70;99.90
12115;DHT22;6121;49.810;6.418;2023-03-23T15:37:56;16.00;99.90
12115;DHT22;6121;49.810;6.418;2023-03-23T15:40:24;15.90;99.90
12115;DHT22;6121;49.810;6.418;2023-03-23T15:43:05;15.60;99.90
12115;DHT22;6121;49.810;6.418;2023-03-23T15:45:32;15.60;99.90
12115;DHT22;6121;49.810;6.418;2023-03-23T15:48:09;15.60;99.90
12115;DHT22;6121;49.810;6.418;2023-03-23T15:50:36;15.60;99.90
12115;DHT22;6121;49.810;6.418;2023-03-23T15:55:53;15.70;99.90
12115;DHT22;6121;49.810;6.418;2023-03-23T15:58:19;15.50;99.90
12115;DHT22;6121;49.810;6.418;2023-03-23T16:00:45;15.60;99.90
12115;DHT22;6121;49.810;6.418;2023-03-23T16:03:21;15.50;99.90
12115;DHT22;6121;49.810;6.418;2023-03-23T16:05:50;15.40;99.90
12115;DHT22;6121;49.810;6.418;2023-03-23T16:08:16;15.40;99.90
12115;DHT22;6121;49.810;6.418;2023-03-23T16:10:42;15.50;99.90
12115;DHT22;6121;49.810;6.418;2023-03-23T16:13:08;15.30;99.90
12115;DHT22;6121;49.810;6.418;2023-03-23T16:15:33;15.30;99.90
12115;DHT22;6121;49.810;6.418;2023-03-23T16:17:59;15.40;99.90
12115;DHT22;6121;49.810;6.418;2023-03-23T16:20:28;15.30;99.90
12115;DHT22;6121;49.810;6.418;2023-03-23T16:22:55;15.40;99.90
12115;DHT22;6121;49.810;6.418;2023-03-23T16:25:21;15.40;99.90
12115;DHT22;6121;49.810;6.418;2023-03-23T16:27:47;15.30;99.90
12115;DHT22;6121;49.810;6.418;2023-03-23T16:32:44;15.30;99.90
12115;DHT22;6121;49.810;6.418;2023-03-23T16:35:13;15.20;99.90
12115;DHT22;6121;49.810;6.418;2023-03-23T16:37:44;15.20;99.90
12115;DHT22;6121;49.810;6.418;2023-03-23T16:40:11;15.30;99.90
12115;DHT22;6121;49.810;6.418;2023-03-23T16:42:37;15.30;99.90
12115;DHT22;6121;49.810;6.418;2023-03-23T16:45:03;15.20;99.90
12115;DHT22;6121;49.810;6.418;2023-03-23T16:47:29;15.20;99.90
12115;DHT22;6121;49.810;6.418;2023-03-23T16:49:55;15.00;99.90
12115;DHT22;6121;49.810;6.418;2023-03-23T16:52:21;15.10;99.90
12115;DHT22;6121;49.810;6.418;2023-03-23T16:54:47;14.80;99.90
12115;DHT22;6121;49.810;6.418;2023-03-23T16:57:14;14.80;99.90
12115;DHT22;6121;49.810;6.418;2023-03-23T16:59:40;14.80;99.90
12115;DHT22;6121;49.810;6.418;2023-03-23T17:02:08;14.80;99.90
12115;DHT22;6121;49.810;6.418;2023-03-23T17:04:34;15.00;99.90
12115;DHT22;6121;49.810;6.418;2023-03-23T17:07:00;14.80;99.90
12115;DHT22;6121;49.810;6.418;2023-03-23T17:09:27;14.80;99.90
12115;DHT22;6121;49.810;6.418;2023-03-23T17:11:53;14.80;99.90
12115;DHT22;6121;49.810;6.418;2023-03-23T17:14:20;14.80;99.90
12115;DHT22;6121;49.810;6.418;2023-03-23T17:16:46;14.90;99.90
12115;DHT22;6121;49.810;6.418;2023-03-23T17:19:12;14.60;99.90
12115;DHT22;6121;49.810;6.418;2023-03-23T17:21:42;14.60;99.90
12115;DHT22;6121;49.810;6.418;2023-03-23T17:24:08;14.70;99.90
12115;DHT22;6121;49.810;6.418;2023-03-23T17:26:34;14.80;99.90
12115;DHT22;6121;49.810;6.418;2023-03-23T17:29:00;14.70;99.90
12115;DHT22;6121;49.810;6.418;2023-03-23T17:31:27;14.50;99.90
12115;DHT22;6121;49.810;6.418;2023-03-23T17:33:53;14.40;99.90
12115;DHT22;6121;49.810;6.418;2023-03-23T17:36:20;14.50;99.90
12115;DHT22;6121;49.810;6.418;2023-03-23T17:38:46;14.60;99.90
12115;DHT22;6121;49.810;6.418;2023-03-23T17:41:14;14.60;99.90
12115;DHT22;6121;49.810;6.418;2023-03-23T17:43:39;14.50;99.90
12115;DHT22;6121;49.810;6.418;2023-03-23T17:46:08;14.40;99.90
12115;DHT22;6121;49.810;6.418;2023-03-23T17:48:34;14.00;99.90
12115;DHT22;6121;49.810;6.418;2023-03-23T17:51:01;14.10;99.90
12115;DHT22;6121;49.810;6.418;2023-03-23T17:53:29;14.20;99.90
12115;DHT22;6121;49.810;6.418;2023-03-23T17:55:56;14.20;99.90
12115;DHT22;6121;49.810;6.418;2023-03-23T17:58:22;14.00;99.90
12115;DHT22;6121;49.810;6.418;2023-03-23T18:00:52;14.10;99.90
12115;DHT22;6121;49.810;6.418;2023-03-23T18:03:18;14.10;99.90
12115;DHT22;6121;49.810;6.418;2023-03-23T18:05:43;14.00;99.90
12115;DHT22;6121;49.810;6.418;2023-03-23T18:08:09;13.80;99.90